sensor_id;sensor_type;location;lat;lon;timestamp;P1;durP1;ratioP1;P2;durP2;ratioP2
18304;SDS011;9278;52.156;21.048;2023-06-24T00:01:44;5.35;;;3.50;;
18304;SDS011;9278;52.156;21.048;2023-06-24T00:04:13;5.82;;;3.22;;
18304;SDS011;9278;52.156;21.048;2023-06-24T00:06:47;4.30;;;3.30;;
18304;SDS011;9278;52.156;21.048;2023-06-24T00:09:15;4.80;;;3.60;;
18304;SDS011;9278;52.156;21.048;2023-06-24T00:11:43;5.78;;;3.92;;
18304;SDS011;9278;52.156;21.048;2023-06-24T00:14:12;4.93;;;3.60;;
18304;SDS011;9278;52.156;21.048;2023-06-24T00:16:41;5.82;;;3.50;;
18304;SDS011;9278;52.156;21.048;2023-06-24T00:19:09;7.57;;;3.92;;
18304;SDS011;9278;52.156;21.048;2023-06-24T00:21:39;5.35;;;3.22;;
18304;SDS011;9278;52.156;21.048;2023-06-24T00:24:07;4.90;;;3.70;;
18304;SDS011;9278;52.156;21.048;2023-06-24T00:26:36;4.25;;;3.30;;
18304;SDS011;9278;52.156;21.048;2023-06-24T00:29:04;5.30;;;3.50;;
18304;SDS011;9278;52.156;21.048;2023-06-24T00:31:32;6.00;;;3.92;;
18304;SDS011;9278;52.156;21.048;2023-06-24T00:34:01;4.93;;;3.50;;
18304;SDS011;9278;52.156;21.048;2023-06-24T00:36:29;4.97;;;3.42;;
18304;SDS011;9278;52.156;21.048;2023-06-24T00:38:59;7.18;;;3.30;;
18304;SDS011;9278;52.156;21.048;2023-06-24T00:41:30;6.47;;;3.50;;
18304;SDS011;9278;52.156;21.048;2023-06-24T00:43:58;4.88;;;3.72;;
18304;SDS011;9278;52.156;21.048;2023-06-24T00:46:27;5.18;;;3.40;;
18304;SDS011;9278;52.156;21.048;2023-06-24T00:48:58;6.00;;;3.55;;
18304;SDS011;9278;52.156;21.048;2023-06-24T00:51:28;5.25;;;3.83;;
18304;SDS011;9278;52.156;21.048;2023-06-24T00:53:57;5.05;;;3.45;;
18304;SDS011;9278;52.156;21.048;2023-06-24T00:56:29;4.05;;;3.10;;
18304;SDS011;9278;52.156;21.048;2023-06-24T00:58:59;5.53;;;3.63;;
18304;SDS011;9278;52.156;21.048;2023-06-24T01:01:29;5.55;;;3.35;;
18304;SDS011;9278;52.156;21.048;2023-06-24T01:04:00;5.07;;;3.53;;
18304;SDS011;9278;52.156;21.048;2023-06-24T01:06:29;7.72;;;3.85;;
18304;SDS011;9278;52.156;21.048;2023-06-24T01:09:00;4.00;;;3.47;;
18304;SDS011;9278;52.156;21.048;2023-06-24T01:11:29;4.78;;;3.38;;
18304;SDS011;9278;52.156;21.048;2023-06-24T01:13:59;5.07;;;3.50;;
18304;SDS011;9278;52.156;21.048;2023-06-24T01:16:30;4.95;;;3.40;;
18304;SDS011;9278;52.156;21.048;2023-06-24T01:19:04;4.72;;;3.45;;
18304;SDS011;9278;52.156;21.048;2023-06-24T01:21:54;6.55;;;3.47;;
18304;SDS011;9278;52.156;21.048;2023-06-24T01:24:38;7.32;;;3.72;;
18304;SDS011;9278;52.156;21.048;2023-06-24T01:27:29;5.35;;;3.78;;
18304;SDS011;9278;52.156;21.048;2023-06-24T01:30:17;6.22;;;4.00;;
18304;SDS011;9278;52.156;21.048;2023-06-24T01:33:07;14.07;;;4.32;;
18304;SDS011;9278;52.156;21.048;2023-06-24T01:35:41;4.53;;;3.33;;
18304;SDS011;9278;52.156;21.048;2023-06-24T01:38:13;6.18;;;3.90;;
18304;SDS011;9278;52.156;21.048;2023-06-24T01:40:47;3.85;;;2.97;;
18304;SDS011;9278;52.156;21.048;2023-06-24T01:43:17;5.40;;;3.50;;
18304;SDS011;9278;52.156;21.048;2023-06-24T01:45:49;6.45;;;3.58;;
18304;SDS011;9278;52.156;21.048;2023-06-24T01:48:21;4.78;;;3.60;;
18304;SDS011;9278;52.156;21.048;2023-06-24T01:50:54;4.93;;;3.30;;
18304;SDS011;9278;52.156;21.048;2023-06-24T01:53:26;5.90;;;3.72;;
18304;SDS011;9278;52.156;21.048;2023-06-24T01:55:57;4.90;;;3.65;;
18304;SDS011;9278;52.156;21.048;2023-06-24T01:58:28;5.97;;;3.22;;
18304;SDS011;9278;52.156;21.048;2023-06-24T02:00:57;5.57;;;3.53;;
18304;SDS011;9278;52.156;21.048;2023-06-24T02:03:29;6.35;;;3.53;;
18304;SDS011;9278;52.156;21.048;2023-06-24T02:05:59;4.35;;;3.30;;
18304;SDS011;9278;52.156;21.048;2023-06-24T02:08:32;5.55;;;3.40;;
18304;SDS011;9278;52.156;21.048;2023-06-24T02:11:03;5.03;;;3.20;;
18304;SDS011;9278;52.156;21.048;2023-06-24T02:13:32;6.30;;;3.60;;
18304;SDS011;9278;52.156;21.048;2023-06-24T02:16:02;7.47;;;3.67;;
18304;SDS011;9278;52.156;21.048;2023-06-24T02:18:35;6.30;;;3.58;;
18304;SDS011;9278;52.156;21.048;2023-06-24T02:21:09;9.73;;;3.55;;
18304;SDS011;9278;52.156;21.048;2023-06-24T02:23:38;7.72;;;3.30;;
18304;SDS011;9278;52.156;21.048;2023-06-24T02:26:07;5.10;;;3.35;;
18304;SDS011;9278;52.156;21.048;2023-06-24T02:28:37;5.22;;;3.50;;
18304;SDS011;9278;52.156;21.048;2023-06-24T02:31:06;6.72;;;3.58;;
18304;SDS011;9278;52.156;21.048;2023-06-24T02:33:38;5.20;;;3.28;;
18304;SDS011;9278;52.156;21.048;2023-06-24T02:36:07;5.57;;;3.50;;
18304;SDS011;9278;52.156;21.048;2023-06-24T02:38:36;5.82;;;3.58;;
18304;SDS011;9278;52.156;21.048;2023-06-24T02:41:04;5.43;;;3.45;;
18304;SDS011;9278;52.156;21.048;2023-06-24T02:43:33;8.40;;;3.28;;
18304;SDS011;9278;52.156;21.048;2023-06-24T02:46:02;5.85;;;3.38;;
18304;SDS011;9278;52.156;21.048;2023-06-24T02:48:33;5.80;;;3.72;;
18304;SDS011;9278;52.156;21.048;2023-06-24T02:51:06;4.82;;;3.30;;
18304;SDS011;9278;52.156;21.048;2023-06-24T02:53:37;5.20;;;3.40;;
18304;SDS011;9278;52.156;21.048;2023-06-24T02:56:09;5.13;;;3.85;;
18304;SDS011;9278;52.156;21.048;2023-06-24T02:58:42;4.78;;;3.22;;
18304;SDS011;9278;52.156;21.048;2023-06-24T03:01:18;4.78;;;3.40;;
18304;SDS011;9278;52.156;21.048;2023-06-24T03:03:53;5.03;;;3.08;;
18304;SDS011;9278;52.156;21.048;2023-06-24T03:06:23;5.07;;;3.60;;
18304;SDS011;9278;52.156;21.048;2023-06-24T03:08:57;6.30;;;3.42;;
18304;SDS011;9278;52.156;21.048;2023-06-24T03:11:27;4.55;;;3.38;;
18304;SDS011;9278;52.156;21.048;2023-06-24T03:13:57;8.52;;;3.80;;
18304;SDS011;9278;52.156;21.048;2023-06-24T03:16:37;4.97;;;3.55;;
18304;SDS011;9278;52.156;21.048;2023-06-24T03:19:12;5.22;;;3.63;;
18304;SDS011;9278;52.156;21.048;2023-06-24T03:21:42;7.82;;;3.92;;
18304;SDS011;9278;52.156;21.048;2023-06-24T03:24:13;5.78;;;3.55;;
18304;SDS011;9278;52.156;21.048;2023-06-24T03:26:46;5.50;;;3.42;;
18304;SDS011;9278;52.156;21.048;2023-06-24T03:29:16;5.85;;;3.70;;
18304;SDS011;9278;52.156;21.048;2023-06-24T03:31:57;4.60;;;3.53;;
18304;SDS011;9278;52.156;21.048;2023-06-24T03:34:26;5.60;;;3.63;;
18304;SDS011;9278;52.156;21.048;2023-06-24T03:36:56;5.88;;;4.00;;
18304;SDS011;9278;52.156;21.048;2023-06-24T03:39:27;6.28;;;4.13;;
18304;SDS011;9278;52.156;21.048;2023-06-24T03:41:56;8.02;;;4.00;;
18304;SDS011;9278;52.156;21.048;2023-06-24T03:44:24;4.80;;;3.67;;
18304;SDS011;9278;52.156;21.048;2023-06-24T03:46:52;6.70;;;3.70;;
18304;SDS011;9278;52.156;21.048;2023-06-24T03:49:20;6.97;;;3.90;;
18304;SDS011;9278;52.156;21.048;2023-06-24T03:51:49;6.40;;;4.25;;
18304;SDS011;9278;52.156;21.048;2023-06-24T03:54:18;5.90;;;3.92;;
18304;SDS011;9278;52.156;21.048;2023-06-24T03:56:47;6.93;;;3.92;;
18304;SDS011;9278;52.156;21.048;2023-06-24T03:59:16;7.75;;;4.07;;
18304;SDS011;9278;52.156;21.048;2023-06-24T04:01:44;6.05;;;3.72;;
18304;SDS011;9278;52.156;21.048;2023-06-24T04:04:12;8.15;;;3.63;;
18304;SDS011;9278;52.156;21.048;2023-06-24T04:06:40;8.48;;;4.32;;
18304;SDS011;9278;52.156;21.048;2023-06-24T04:09:12;6.47;;;3.75;;
18304;SDS011;9278;52.156;21.048;2023-06-24T04:11:42;7.18;;;3.75;;
18304;SDS011;9278;52.156;21.048;2023-06-24T04:14:10;5.60;;;4.10;;
18304;SDS011;9278;52.156;21.048;2023-06-24T04:16:38;6.30;;;3.92;;
18304;SDS011;9278;52.156;21.048;2023-06-24T04:19:06;7.88;;;4.22;;
18304;SDS011;9278;52.156;21.048;2023-06-24T04:21:36;7.20;;;3.80;;
18304;SDS011;9278;52.156;21.048;2023-06-24T04:24:05;6.25;;;4.15;;
18304;SDS011;9278;52.156;21.048;2023-06-24T04:26:34;6.30;;;4.25;;
18304;SDS011;9278;52.156;21.048;2023-06-24T04:29:03;6.88;;;4.35;;
18304;SDS011;9278;52.156;21.048;2023-06-24T04:31:31;7.15;;;3.97;;
18304;SDS011;9278;52.156;21.048;2023-06-24T04:34:00;7.40;;;3.90;;
18304;SDS011;9278;52.156;21.048;2023-06-24T04:36:29;5.65;;;4.20;;
18304;SDS011;9278;52.156;21.048;2023-06-24T04:38:57;7.38;;;4.30;;
18304;SDS011;9278;52.156;21.048;2023-06-24T04:41:26;8.13;;;4.15;;
18304;SDS011;9278;52.156;21.048;2023-06-24T04:43:54;6.57;;;3.83;;
18304;SDS011;9278;52.156;21.048;2023-06-24T04:46:24;6.63;;;4.30;;
18304;SDS011;9278;52.156;21.048;2023-06-24T04:48:53;6.43;;;4.32;;
18304;SDS011;9278;52.156;21.048;2023-06-24T04:51:21;8.75;;;3.85;;
18304;SDS011;9278;52.156;21.048;2023-06-24T04:53:49;6.68;;;4.10;;
18304;SDS011;9278;52.156;21.048;2023-06-24T04:56:17;7.97;;;4.00;;
18304;SDS011;9278;52.156;21.048;2023-06-24T04:58:46;7.22;;;4.05;;
18304;SDS011;9278;52.156;21.048;2023-06-24T05:01:14;6.80;;;4.43;;
18304;SDS011;9278;52.156;21.048;2023-06-24T05:03:44;6.35;;;3.70;;
18304;SDS011;9278;52.156;21.048;2023-06-24T05:06:12;7.22;;;4.10;;
18304;SDS011;9278;52.156;21.048;2023-06-24T05:08:40;7.28;;;4.60;;
18304;SDS011;9278;52.156;21.048;2023-06-24T05:11:09;7.57;;;3.83;;
18304;SDS011;9278;52.156;21.048;2023-06-24T05:13:37;8.02;;;3.95;;
18304;SDS011;9278;52.156;21.048;2023-06-24T05:16:05;7.10;;;3.97;;
18304;SDS011;9278;52.156;21.048;2023-06-24T05:18:33;6.28;;;4.00;;
18304;SDS011;9278;52.156;21.048;2023-06-24T05:21:03;8.60;;;3.70;;
18304;SDS011;9278;52.156;21.048;2023-06-24T05:23:32;5.78;;;3.67;;
18304;SDS011;9278;52.156;21.048;2023-06-24T05:26:00;6.15;;;3.70;;
18304;SDS011;9278;52.156;21.048;2023-06-24T05:28:28;6.72;;;4.20;;
18304;SDS011;9278;52.156;21.048;2023-06-24T05:30:56;5.65;;;3.67;;
18304;SDS011;9278;52.156;21.048;2023-06-24T05:33:25;6.28;;;3.70;;
18304;SDS011;9278;52.156;21.048;2023-06-24T05:35:53;4.68;;;3.40;;
18304;SDS011;9278;52.156;21.048;2023-06-24T05:38:22;7.13;;;3.25;;
18304;SDS011;9278;52.156;21.048;2023-06-24T05:40:51;6.30;;;3.70;;
18304;SDS011;9278;52.156;21.048;2023-06-24T05:43:19;5.85;;;3.90;;
18304;SDS011;9278;52.156;21.048;2023-06-24T05:45:47;6.78;;;3.70;;
18304;SDS011;9278;52.156;21.048;2023-06-24T05:48:15;8.02;;;3.60;;
18304;SDS011;9278;52.156;21.048;2023-06-24T05:50:44;6.28;;;3.50;;
18304;SDS011;9278;52.156;21.048;2023-06-24T05:53:12;5.00;;;3.65;;
18304;SDS011;9278;52.156;21.048;2023-06-24T05:55:42;10.10;;;3.75;;
18304;SDS011;9278;52.156;21.048;2023-06-24T05:58:10;5.53;;;3.50;;
18304;SDS011;9278;52.156;21.048;2023-06-24T06:00:38;6.97;;;3.70;;
18304;SDS011;9278;52.156;21.048;2023-06-24T06:03:08;6.85;;;3.53;;
18304;SDS011;9278;52.156;21.048;2023-06-24T06:05:37;5.55;;;3.47;;
18304;SDS011;9278;52.156;21.048;2023-06-24T06:08:05;6.22;;;3.67;;
18304;SDS011;9278;52.156;21.048;2023-06-24T06:10:34;5.88;;;3.60;;
18304;SDS011;9278;52.156;21.048;2023-06-24T06:13:03;5.20;;;3.55;;
18304;SDS011;9278;52.156;21.048;2023-06-24T06:15:31;5.95;;;4.00;;
18304;SDS011;9278;52.156;21.048;2023-06-24T06:18:00;6.80;;;3.60;;
18304;SDS011;9278;52.156;21.048;2023-06-24T06:20:28;5.82;;;3.58;;
18304;SDS011;9278;52.156;21.048;2023-06-24T06:22:56;6.57;;;3.97;;
18304;SDS011;9278;52.156;21.048;2023-06-24T06:25:25;5.60;;;3.65;;
18304;SDS011;9278;52.156;21.048;2023-06-24T06:27:53;5.28;;;3.53;;
18304;SDS011;9278;52.156;21.048;2023-06-24T06:30:23;6.63;;;3.28;;
18304;SDS011;9278;52.156;21.048;2023-06-24T06:32:51;6.88;;;3.47;;
18304;SDS011;9278;52.156;21.048;2023-06-24T06:35:20;6.63;;;3.58;;
18304;SDS011;9278;52.156;21.048;2023-06-24T06:37:48;5.30;;;3.60;;
18304;SDS011;9278;52.156;21.048;2023-06-24T06:40:22;5.82;;;3.55;;
18304;SDS011;9278;52.156;21.048;2023-06-24T06:42:50;5.72;;;3.63;;
18304;SDS011;9278;52.156;21.048;2023-06-24T06:45:19;5.65;;;3.80;;
18304;SDS011;9278;52.156;21.048;2023-06-24T06:47:48;7.72;;;3.75;;
18304;SDS011;9278;52.156;21.048;2023-06-24T06:50:17;7.13;;;3.78;;
18304;SDS011;9278;52.156;21.048;2023-06-24T06:52:45;7.80;;;3.95;;
18304;SDS011;9278;52.156;21.048;2023-06-24T06:55:13;5.97;;;4.00;;
18304;SDS011;9278;52.156;21.048;2023-06-24T06:57:42;8.40;;;3.70;;
18304;SDS011;9278;52.156;21.048;2023-06-24T07:00:10;6.53;;;4.15;;
18304;SDS011;9278;52.156;21.048;2023-06-24T07:02:39;7.25;;;4.00;;
18304;SDS011;9278;52.156;21.048;2023-06-24T07:05:09;8.07;;;4.07;;
18304;SDS011;9278;52.156;21.048;2023-06-24T07:07:37;6.95;;;4.05;;
18304;SDS011;9278;52.156;21.048;2023-06-24T07:10:06;6.25;;;3.92;;
18304;SDS011;9278;52.156;21.048;2023-06-24T07:12:34;7.22;;;3.90;;
18304;SDS011;9278;52.156;21.048;2023-06-24T07:15:03;8.05;;;4.07;;
18304;SDS011;9278;52.156;21.048;2023-06-24T07:17:32;6.57;;;3.97;;
18304;SDS011;9278;52.156;21.048;2023-06-24T07:20:00;8.05;;;4.15;;
18304;SDS011;9278;52.156;21.048;2023-06-24T07:22:30;5.70;;;4.00;;
18304;SDS011;9278;52.156;21.048;2023-06-24T07:24:58;8.18;;;3.85;;
18304;SDS011;9278;52.156;21.048;2023-06-24T07:27:27;7.00;;;3.72;;
18304;SDS011;9278;52.156;21.048;2023-06-24T07:29:55;5.32;;;3.42;;
18304;SDS011;9278;52.156;21.048;2023-06-24T07:32:23;8.07;;;3.67;;
18304;SDS011;9278;52.156;21.048;2023-06-24T07:34:52;8.07;;;3.72;;
18304;SDS011;9278;52.156;21.048;2023-06-24T07:37:20;9.48;;;3.83;;
18304;SDS011;9278;52.156;21.048;2023-06-24T07:39:52;7.38;;;3.63;;
18304;SDS011;9278;52.156;21.048;2023-06-24T07:42:20;10.90;;;3.75;;
18304;SDS011;9278;52.156;21.048;2023-06-24T07:44:48;6.15;;;3.83;;
18304;SDS011;9278;52.156;21.048;2023-06-24T07:47:17;8.85;;;3.80;;
18304;SDS011;9278;52.156;21.048;2023-06-24T07:49:46;8.40;;;3.72;;
18304;SDS011;9278;52.156;21.048;2023-06-24T07:52:14;5.53;;;3.50;;
18304;SDS011;9278;52.156;21.048;2023-06-24T07:54:42;6.70;;;3.90;;
18304;SDS011;9278;52.156;21.048;2023-06-24T07:57:12;7.30;;;4.18;;
18304;SDS011;9278;52.156;21.048;2023-06-24T07:59:40;5.15;;;3.30;;
18304;SDS011;9278;52.156;21.048;2023-06-24T08:02:08;8.35;;;3.80;;
18304;SDS011;9278;52.156;21.048;2023-06-24T08:04:36;5.47;;;3.83;;
18304;SDS011;9278;52.156;21.048;2023-06-24T08:07:05;6.68;;;3.58;;
18304;SDS011;9278;52.156;21.048;2023-06-24T08:09:33;6.25;;;3.50;;
18304;SDS011;9278;52.156;21.048;2023-06-24T08:12:01;5.85;;;3.92;;
18304;SDS011;9278;52.156;21.048;2023-06-24T08:14:32;6.82;;;4.15;;
18304;SDS011;9278;52.156;21.048;2023-06-24T08:17:00;11.27;;;4.22;;
18304;SDS011;9278;52.156;21.048;2023-06-24T08:19:28;6.78;;;3.90;;
18304;SDS011;9278;52.156;21.048;2023-06-24T08:21:56;6.47;;;4.07;;
18304;SDS011;9278;52.156;21.048;2023-06-24T08:24:25;6.55;;;4.05;;
18304;SDS011;9278;52.156;21.048;2023-06-24T08:26:53;7.85;;;3.72;;
18304;SDS011;9278;52.156;21.048;2023-06-24T08:29:21;6.20;;;4.05;;
18304;SDS011;9278;52.156;21.048;2023-06-24T08:31:51;6.63;;;3.80;;
18304;SDS011;9278;52.156;21.048;2023-06-24T08:34:19;6.93;;;3.60;;
18304;SDS011;9278;52.156;21.048;2023-06-24T08:36:48;6.05;;;3.70;;
18304;SDS011;9278;52.156;21.048;2023-06-24T08:39:16;5.57;;;3.50;;
18304;SDS011;9278;52.156;21.048;2023-06-24T08:41:44;5.20;;;3.50;;
18304;SDS011;9278;52.156;21.048;2023-06-24T08:44:12;5.88;;;3.33;;
18304;SDS011;9278;52.156;21.048;2023-06-24T08:46:41;4.07;;;3.25;;
18304;SDS011;9278;52.156;21.048;2023-06-24T08:49:13;4.93;;;3.40;;
18304;SDS011;9278;52.156;21.048;2023-06-24T08:51:54;5.10;;;3.33;;
18304;SDS011;9278;52.156;21.048;2023-06-24T08:54:27;3.97;;;3.28;;
18304;SDS011;9278;52.156;21.048;2023-06-24T08:56:56;7.03;;;3.50;;
18304;SDS011;9278;52.156;21.048;2023-06-24T08:59:26;5.05;;;3.42;;
18304;SDS011;9278;52.156;21.048;2023-06-24T09:01:54;4.13;;;3.10;;
18304;SDS011;9278;52.156;21.048;2023-06-24T09:04:24;7.65;;;3.33;;
18304;SDS011;9278;52.156;21.048;2023-06-24T09:06:52;5.53;;;3.30;;
18304;SDS011;9278;52.156;21.048;2023-06-24T09:09:21;8.40;;;3.40;;
18304;SDS011;9278;52.156;21.048;2023-06-24T09:11:53;3.50;;;3.00;;
18304;SDS011;9278;52.156;21.048;2023-06-24T09:14:22;5.95;;;3.42;;
18304;SDS011;9278;52.156;21.048;2023-06-24T09:16:52;6.07;;;3.22;;
18304;SDS011;9278;52.156;21.048;2023-06-24T09:19:22;4.22;;;2.95;;
18304;SDS011;9278;52.156;21.048;2023-06-24T09:21:51;7.03;;;3.33;;
18304;SDS011;9278;52.156;21.048;2023-06-24T09:24:20;4.57;;;2.88;;
18304;SDS011;9278;52.156;21.048;2023-06-24T09:26:48;5.90;;;3.25;;
18304;SDS011;9278;52.156;21.048;2023-06-24T09:29:16;5.85;;;3.08;;
18304;SDS011;9278;52.156;21.048;2023-06-24T09:31:48;4.43;;;3.40;;
18304;SDS011;9278;52.156;21.048;2023-06-24T09:34:19;6.40;;;3.00;;
18304;SDS011;9278;52.156;21.048;2023-06-24T09:36:52;5.18;;;2.95;;
18304;SDS011;9278;52.156;21.048;2023-06-24T09:39:21;4.90;;;3.13;;
18304;SDS011;9278;52.156;21.048;2023-06-24T09:41:56;7.05;;;3.70;;
18304;SDS011;9278;52.156;21.048;2023-06-24T09:44:25;4.65;;;3.30;;
18304;SDS011;9278;52.156;21.048;2023-06-24T09:46:54;5.25;;;3.17;;
18304;SDS011;9278;52.156;21.048;2023-06-24T09:49:23;5.57;;;3.20;;
18304;SDS011;9278;52.156;21.048;2023-06-24T09:51:55;7.10;;;3.47;;
18304;SDS011;9278;52.156;21.048;2023-06-24T09:54:25;7.32;;;3.70;;
18304;SDS011;9278;52.156;21.048;2023-06-24T09:57:01;12.50;;;3.65;;
18304;SDS011;9278;52.156;21.048;2023-06-24T09:59:30;4.93;;;3.28;;
18304;SDS011;9278;52.156;21.048;2023-06-24T10:02:00;12.30;;;3.70;;
18304;SDS011;9278;52.156;21.048;2023-06-24T10:04:31;5.85;;;3.50;;
18304;SDS011;9278;52.156;21.048;2023-06-24T10:07:01;5.82;;;3.55;;
18304;SDS011;9278;52.156;21.048;2023-06-24T10:09:30;6.35;;;3.58;;
18304;SDS011;9278;52.156;21.048;2023-06-24T10:11:58;6.32;;;3.67;;
18304;SDS011;9278;52.156;21.048;2023-06-24T10:14:26;6.95;;;3.03;;
18304;SDS011;9278;52.156;21.048;2023-06-24T10:17:00;5.60;;;3.50;;
18304;SDS011;9278;52.156;21.048;2023-06-24T10:19:29;5.75;;;3.40;;
18304;SDS011;9278;52.156;21.048;2023-06-24T10:22:08;5.47;;;3.25;;
18304;SDS011;9278;52.156;21.048;2023-06-24T10:24:38;5.80;;;3.60;;
18304;SDS011;9278;52.156;21.048;2023-06-24T10:27:13;7.25;;;3.47;;
18304;SDS011;9278;52.156;21.048;2023-06-24T10:29:44;8.88;;;3.70;;
18304;SDS011;9278;52.156;21.048;2023-06-24T10:32:13;5.80;;;3.00;;
18304;SDS011;9278;52.156;21.048;2023-06-24T10:34:42;6.35;;;3.20;;
18304;SDS011;9278;52.156;21.048;2023-06-24T10:37:13;5.88;;;3.65;;
18304;SDS011;9278;52.156;21.048;2023-06-24T10:39:47;6.28;;;3.40;;
18304;SDS011;9278;52.156;21.048;2023-06-24T10:45:14;4.00;;;3.25;;
18304;SDS011;9278;52.156;21.048;2023-06-24T10:47:46;5.10;;;3.28;;
18304;SDS011;9278;52.156;21.048;2023-06-24T10:50:17;8.02;;;3.95;;
18304;SDS011;9278;52.156;21.048;2023-06-24T10:52:48;5.00;;;3.53;;
18304;SDS011;9278;52.156;21.048;2023-06-24T10:55:21;6.65;;;3.45;;
18304;SDS011;9278;52.156;21.048;2023-06-24T10:57:50;4.75;;;2.95;;
18304;SDS011;9278;52.156;21.048;2023-06-24T11:00:19;6.25;;;3.25;;
18304;SDS011;9278;52.156;21.048;2023-06-24T11:02:48;4.97;;;3.10;;
18304;SDS011;9278;52.156;21.048;2023-06-24T11:05:16;5.55;;;3.30;;
18304;SDS011;9278;52.156;21.048;2023-06-24T11:07:45;4.93;;;3.10;;
18304;SDS011;9278;52.156;21.048;2023-06-24T11:10:15;4.70;;;3.08;;
18304;SDS011;9278;52.156;21.048;2023-06-24T11:12:43;6.97;;;3.17;;
18304;SDS011;9278;52.156;21.048;2023-06-24T11:15:13;6.30;;;3.38;;
18304;SDS011;9278;52.156;21.048;2023-06-24T11:17:41;5.22;;;3.20;;
18304;SDS011;9278;52.156;21.048;2023-06-24T11:20:10;6.10;;;3.25;;
18304;SDS011;9278;52.156;21.048;2023-06-24T11:22:40;5.15;;;3.15;;
18304;SDS011;9278;52.156;21.048;2023-06-24T11:25:15;5.40;;;3.30;;
18304;SDS011;9278;52.156;21.048;2023-06-24T11:27:44;6.30;;;3.80;;
18304;SDS011;9278;52.156;21.048;2023-06-24T11:30:13;8.15;;;3.13;;
18304;SDS011;9278;52.156;21.048;2023-06-24T11:32:42;7.50;;;3.10;;
18304;SDS011;9278;52.156;21.048;2023-06-24T11:35:12;4.25;;;3.03;;
18304;SDS011;9278;52.156;21.048;2023-06-24T11:37:42;7.10;;;3.42;;
18304;SDS011;9278;52.156;21.048;2023-06-24T11:40:11;5.18;;;2.95;;
18304;SDS011;9278;52.156;21.048;2023-06-24T11:42:44;7.57;;;3.60;;
18304;SDS011;9278;52.156;21.048;2023-06-24T11:45:14;4.38;;;3.25;;
18304;SDS011;9278;52.156;21.048;2023-06-24T11:47:47;4.30;;;3.20;;
18304;SDS011;9278;52.156;21.048;2023-06-24T11:50:16;5.40;;;3.63;;
18304;SDS011;9278;52.156;21.048;2023-06-24T11:52:44;5.70;;;3.38;;
18304;SDS011;9278;52.156;21.048;2023-06-24T11:55:16;10.43;;;4.00;;
18304;SDS011;9278;52.156;21.048;2023-06-24T11:57:54;7.50;;;3.47;;
18304;SDS011;9278;52.156;21.048;2023-06-24T12:00:24;5.75;;;3.58;;
18304;SDS011;9278;52.156;21.048;2023-06-24T12:02:54;6.07;;;3.53;;
18304;SDS011;9278;52.156;21.048;2023-06-24T12:05:24;4.90;;;3.40;;
18304;SDS011;9278;52.156;21.048;2023-06-24T12:07:55;7.93;;;3.42;;
18304;SDS011;9278;52.156;21.048;2023-06-24T12:10:25;5.70;;;3.58;;
18304;SDS011;9278;52.156;21.048;2023-06-24T12:12:57;5.50;;;3.53;;
18304;SDS011;9278;52.156;21.048;2023-06-24T12:15:25;5.78;;;3.50;;
18304;SDS011;9278;52.156;21.048;2023-06-24T12:17:54;5.65;;;3.80;;
18304;SDS011;9278;52.156;21.048;2023-06-24T12:20:23;6.80;;;3.20;;
18304;SDS011;9278;52.156;21.048;2023-06-24T12:22:56;4.40;;;3.30;;
18304;SDS011;9278;52.156;21.048;2023-06-24T12:25:25;8.73;;;4.53;;
18304;SDS011;9278;52.156;21.048;2023-06-24T12:27:53;5.78;;;3.22;;
18304;SDS011;9278;52.156;21.048;2023-06-24T12:30:23;5.90;;;3.40;;
18304;SDS011;9278;52.156;21.048;2023-06-24T12:32:51;5.22;;;3.42;;
18304;SDS011;9278;52.156;21.048;2023-06-24T12:35:20;6.18;;;3.65;;
18304;SDS011;9278;52.156;21.048;2023-06-24T12:37:51;7.53;;;3.60;;
18304;SDS011;9278;52.156;21.048;2023-06-24T12:40:20;5.47;;;3.65;;
18304;SDS011;9278;52.156;21.048;2023-06-24T12:42:49;5.43;;;3.67;;
18304;SDS011;9278;52.156;21.048;2023-06-24T12:45:17;5.03;;;3.63;;
18304;SDS011;9278;52.156;21.048;2023-06-24T12:47:46;6.40;;;3.42;;
18304;SDS011;9278;52.156;21.048;2023-06-24T12:50:17;6.57;;;3.67;;
18304;SDS011;9278;52.156;21.048;2023-06-24T12:52:45;5.10;;;4.00;;
18304;SDS011;9278;52.156;21.048;2023-06-24T12:55:13;7.13;;;3.83;;
18304;SDS011;9278;52.156;21.048;2023-06-24T12:57:43;5.90;;;3.65;;
18304;SDS011;9278;52.156;21.048;2023-06-24T13:00:12;7.10;;;3.72;;
18304;SDS011;9278;52.156;21.048;2023-06-24T13:02:41;5.75;;;3.65;;
18304;SDS011;9278;52.156;21.048;2023-06-24T13:05:10;22.92;;;3.88;;
18304;SDS011;9278;52.156;21.048;2023-06-24T13:07:39;6.20;;;3.63;;
18304;SDS011;9278;52.156;21.048;2023-06-24T13:10:07;5.78;;;3.50;;
18304;SDS011;9278;52.156;21.048;2023-06-24T13:12:37;5.13;;;3.63;;
18304;SDS011;9278;52.156;21.048;2023-06-24T13:15:06;7.53;;;3.80;;
18304;SDS011;9278;52.156;21.048;2023-06-24T13:17:36;6.93;;;3.20;;
18304;SDS011;9278;52.156;21.048;2023-06-24T13:20:05;5.97;;;3.65;;
18304;SDS011;9278;52.156;21.048;2023-06-24T13:22:35;6.00;;;4.13;;
18304;SDS011;9278;52.156;21.048;2023-06-24T13:25:04;7.63;;;4.03;;
18304;SDS011;9278;52.156;21.048;2023-06-24T13:27:33;7.00;;;4.22;;
18304;SDS011;9278;52.156;21.048;2023-06-24T13:30:07;8.00;;;4.00;;
18304;SDS011;9278;52.156;21.048;2023-06-24T13:32:36;6.90;;;4.00;;
18304;SDS011;9278;52.156;21.048;2023-06-24T13:35:05;8.15;;;4.20;;
18304;SDS011;9278;52.156;21.048;2023-06-24T13:37:35;6.70;;;4.30;;
18304;SDS011;9278;52.156;21.048;2023-06-24T13:40:06;7.05;;;4.30;;
18304;SDS011;9278;52.156;21.048;2023-06-24T13:42:34;5.65;;;4.03;;
18304;SDS011;9278;52.156;21.048;2023-06-24T13:45:03;5.45;;;3.92;;
18304;SDS011;9278;52.156;21.048;2023-06-24T13:47:32;5.88;;;3.88;;
18304;SDS011;9278;52.156;21.048;2023-06-24T13:50:00;5.53;;;3.42;;
18304;SDS011;9278;52.156;21.048;2023-06-24T13:52:28;7.10;;;3.85;;
18304;SDS011;9278;52.156;21.048;2023-06-24T13:54:58;6.40;;;4.13;;
18304;SDS011;9278;52.156;21.048;2023-06-24T13:57:26;4.82;;;3.80;;
18304;SDS011;9278;52.156;21.048;2023-06-24T13:59:54;4.07;;;3.42;;
18304;SDS011;9278;52.156;21.048;2023-06-24T14:02:22;4.18;;;3.30;;
18304;SDS011;9278;52.156;21.048;2023-06-24T14:04:51;4.57;;;3.50;;
18304;SDS011;9278;52.156;21.048;2023-06-24T14:07:19;5.45;;;3.50;;
18304;SDS011;9278;52.156;21.048;2023-06-24T14:09:48;3.55;;;3.08;;
18304;SDS011;9278;52.156;21.048;2023-06-24T14:12:17;7.88;;;3.30;;
18304;SDS011;9278;52.156;21.048;2023-06-24T14:14:46;5.03;;;2.90;;
18304;SDS011;9278;52.156;21.048;2023-06-24T14:17:14;4.50;;;2.58;;
18304;SDS011;9278;52.156;21.048;2023-06-24T14:19:42;4.05;;;3.00;;
18304;SDS011;9278;52.156;21.048;2023-06-24T14:22:12;3.75;;;2.75;;
18304;SDS011;9278;52.156;21.048;2023-06-24T14:24:41;4.57;;;2.58;;
18304;SDS011;9278;52.156;21.048;2023-06-24T14:27:09;6.35;;;3.08;;
18304;SDS011;9278;52.156;21.048;2023-06-24T14:29:38;5.28;;;2.90;;
18304;SDS011;9278;52.156;21.048;2023-06-24T14:32:07;5.18;;;3.00;;
18304;SDS011;9278;52.156;21.048;2023-06-24T14:34:35;5.60;;;3.00;;
18304;SDS011;9278;52.156;21.048;2023-06-24T14:37:05;4.65;;;2.78;;
18304;SDS011;9278;52.156;21.048;2023-06-24T14:39:33;5.78;;;3.00;;
18304;SDS011;9278;52.156;21.048;2023-06-24T14:42:01;7.45;;;2.83;;
18304;SDS011;9278;52.156;21.048;2023-06-24T14:44:30;5.38;;;3.10;;
18304;SDS011;9278;52.156;21.048;2023-06-24T14:47:00;4.30;;;3.03;;
18304;SDS011;9278;52.156;21.048;2023-06-24T14:49:29;5.25;;;2.97;;
18304;SDS011;9278;52.156;21.048;2023-06-24T14:51:57;7.13;;;3.42;;
18304;SDS011;9278;52.156;21.048;2023-06-24T14:54:26;4.53;;;3.08;;
18304;SDS011;9278;52.156;21.048;2023-06-24T14:56:54;4.82;;;3.13;;
18304;SDS011;9278;52.156;21.048;2023-06-24T14:59:22;5.25;;;2.88;;
18304;SDS011;9278;52.156;21.048;2023-06-24T15:01:50;6.20;;;3.20;;
18304;SDS011;9278;52.156;21.048;2023-06-24T15:04:20;7.10;;;3.40;;
18304;SDS011;9278;52.156;21.048;2023-06-24T15:06:48;4.70;;;3.22;;